Time;durP1;ratioP1;P1;durP2;ratioP2;P2;SDS_P1;SDS_P2;PMS_P1;PMS_P2;Temp;Humidity;BMP_temperature;BMP_pressure;BME280_temperature;BME280_humidity;BME280_pressure;Samples;Min_cycle;Max_cycle;Signal;HPM_P1;HPM_P2
2022/11/16 00:00:20;;;;;;;69.15;31.70;;;8.80;99.90;;;;;;5112963;28;20761;-69
2022/11/16 00:02:47;;;;;;;71.13;31.80;;;8.80;99.90;;;;;;5113230;28;20031;-68
2022/11/16 00:05:13;;;;;;;70.00;30.55;;;8.80;99.90;;;;;;5113129;28;20036;-70
2022/11/16 00:07:39;;;;;;;72.80;31.55;;;8.80;99.90;;;;;;5113870;28;20479;-69
2022/11/16 00:10:05;;;;;;;69.63;31.10;;;8.80;99.90;;;;;;5113565;28;20036;-68
2022/11/16 00:12:31;;;;;;;79.25;31.80;;;8.80;99.90;;;;;;5114042;28;20035;-69
2022/11/16 00:14:56;;;;;;;73.60;33.58;;;8.80;99.90;;;;;;5114171;28;20034;-69
2022/11/16 00:17:22;;;;;;;76.45;32.45;;;8.80;99.90;;;;;;5113389;28;20118;-70
2022/11/16 00:19:48;;;;;;;76.15;32.95;;;8.80;99.90;;;;;;5114184;28;20477;-69
2022/11/16 00:22:13;;;;;;;72.72;32.53;;;8.70;99.90;;;;;;5113348;28;20024;-69
2022/11/16 00:24:39;;;;;;;73.85;32.83;;;8.80;99.90;;;;;;5114259;28;20028;-69
2022/11/16 00:27:04;;;;;;;71.38;33.08;;;8.80;99.90;;;;;;5113448;28;20038;-69
2022/11/16 00:29:30;;;;;;;73.55;33.88;;;8.80;99.90;;;;;;5113640;28;20023;-71
2022/11/16 00:31:56;;;;;;;79.90;33.17;;;8.80;99.90;;;;;;5113698;28;20042;-67
2022/11/16 00:34:22;;;;;;;76.68;31.75;;;8.80;99.90;;;;;;5113158;28;20050;-70
2022/11/16 00:36:48;;;;;;;80.75;35.17;;;8.80;99.90;;;;;;5113744;28;20027;-68
2022/11/16 00:39:15;;;;;;;76.95;34.72;;;8.80;99.90;;;;;;5113346;28;20102;-68
2022/11/16 00:41:42;;;;;;;90.53;35.25;;;8.80;99.90;;;;;;5113286;28;20081;-69
2022/11/16 00:44:08;;;;;;;89.63;37.90;;;8.80;99.90;;;;;;5113137;28;20024;-69
2022/11/16 00:46:34;;;;;;;92.57;36.30;;;8.80;99.90;;;;;;5113744;28;20048;-69
2022/11/16 00:49:00;;;;;;;91.18;37.38;;;8.80;99.90;;;;;;5113622;28;20049;-69
2022/11/16 00:51:25;;;;;;;87.50;35.58;;;8.80;99.90;;;;;;5112937;28;20047;-69
2022/11/16 00:53:51;;;;;;;86.68;35.22;;;8.80;99.90;;;;;;5113152;28;20026;-69
2022/11/16 00:56:17;;;;;;;97.38;35.67;;;8.80;99.90;;;;;;5112946;28;20074;-69
2022/11/16 00:58:42;;;;;;;92.90;36.92;;;8.80;99.90;;;;;;5112970;28;20352;-70
2022/11/16 01:01:10;;;;;;;99.25;37.15;;;8.80;99.90;;;;;;5112334;28;20032;-69
2022/11/16 01:03:36;;;;;;;99.88;37.55;;;8.80;99.90;;;;;;5112361;28;20063;-68
2022/11/16 01:06:03;;;;;;;117.63;38.30;;;8.80;99.90;;;;;;5113054;28;20059;-69
2022/11/16 01:08:29;;;;;;;102.65;36.80;;;8.80;99.90;;;;;;5113063;28;20031;-68
2022/11/16 01:10:54;;;;;;;101.72;36.78;;;8.80;99.90;;;;;;5112811;28;20382;-69
2022/11/16 01:13:20;;;;;;;125.75;36.03;;;8.80;99.90;;;;;;5112569;28;20031;-68
2022/11/16 01:15:47;;;;;;;125.03;37.53;;;8.80;99.90;;;;;;5112860;28;20050;-68
2022/11/16 01:18:12;;;;;;;99.18;36.83;;;8.80;99.90;;;;;;5111776;28;20019;-68
2022/11/16 01:20:39;;;;;;;111.15;38.65;;;8.80;99.90;;;;;;5112228;28;20034;-68
2022/11/16 01:23:05;;;;;;;93.90;35.05;;;8.70;99.90;;;;;;5111718;28;20031;-70
2022/11/16 01:25:31;;;;;;;84.53;34.55;;;8.70;99.90;;;;;;5112545;28;20030;-71
2022/11/16 01:27:57;;;;;;;91.72;34.42;;;8.70;99.90;;;;;;5112798;28;20028;-69
2022/11/16 01:30:22;;;;;;;95.00;36.95;;;8.70;99.90;;;;;;5111640;28;20055;-68
2022/11/16 01:32:48;;;;;;;91.95;36.03;;;8.60;99.90;;;;;;5112649;28;20108;-69
2022/11/16 01:35:16;;;;;;;95.65;38.03;;;8.60;99.90;;;;;;5112171;28;20051;-69
2022/11/16 01:37:42;;;;;;;93.43;37.88;;;8.70;99.90;;;;;;5111480;28;20457;-69
2022/11/16 01:40:08;;;;;;;96.18;37.67;;;8.70;99.90;;;;;;5112084;28;20028;-68
2022/11/16 01:42:34;;;;;;;101.05;37.85;;;8.70;99.90;;;;;;5112439;28;20049;-68
2022/11/16 01:45:09;;;;;;;95.90;36.83;;;8.70;99.90;;;;;;5112703;28;20036;-68
2022/11/16 01:47:35;;;;;;;99.70;37.15;;;8.60;99.90;;;;;;5112440;28;20429;-69
2022/11/16 01:50:09;;;;;;;96.30;36.47;;;8.60;99.90;;;;;;5112674;28;20099;-69
2022/11/16 01:52:37;;;;;;;105.43;37.72;;;8.60;99.90;;;;;;5112579;28;20031;-70
2022/11/16 01:55:04;;;;;;;112.75;39.08;;;8.60;99.90;;;;;;5112802;28;20084;-70
2022/11/16 01:57:37;;;;;;;108.18;39.25;;;8.60;99.90;;;;;;5112152;28;20360;-69
2022/11/16 02:00:05;;;;;;;102.40;39.08;;;8.60;99.90;;;;;;5112560;28;20028;-69
2022/11/16 02:02:31;;;;;;;113.40;40.45;;;8.60;99.90;;;;;;5111764;28;20035;-68
2022/11/16 02:04:59;;;;;;;101.60;38.03;;;8.60;99.90;;;;;;5111590;28;20024;-68
2022/11/16 02:11:24;;;;;;;94.22;38.00;;;8.60;99.90;;;;;;5111251;28;20076;-68
2022/11/16 02:14:07;;;;;;;106.13;38.80;;;8.60;99.90;;;;;;5079990;28;20092;-68
2022/11/16 02:16:47;;;;;;;104.40;38.92;;;8.60;99.90;;;;;;5115384;28;20058;-68
2022/11/16 02:19:39;;;;;;;104.97;40.95;;;8.60;99.90;;;;;;5115512;27;20100;-69
2022/11/16 02:22:24;;;;;;;101.93;39.38;;;8.60;99.90;;;;;;5116424;27;20405;-69
2022/11/16 02:25:07;;;;;;;101.63;39.10;;;8.60;99.90;;;;;;5114957;28;20023;-69
2022/11/16 02:28:03;;;;;;;110.50;38.65;;;8.60;99.90;;;;;;5115997;28;20027;-69
2022/11/16 02:30:29;;;;;;;90.32;37.17;;;8.60;99.90;;;;;;5114263;28;20125;-68
2022/11/16 02:33:00;;;;;;;99.53;39.40;;;8.60;99.90;;;;;;5118051;28;20118;-67
2022/11/16 02:35:31;;;;;;;;;;;8.60;99.90;;;;;;5118020;28;20048;-69
2022/11/16 02:38:20;;;;;;;91.63;36.20;;;8.60;99.90;;;;;;5118136;28;19904;-68
2022/11/16 02:40:51;;;;;;;101.50;39.15;;;8.60;99.90;;;;;;5117124;28;20031;-69
2022/11/16 02:43:27;;;;;;;;;;;8.60;99.90;;;;;;5115938;28;20039;-69
2022/11/16 02:45:57;;;;;;;108.97;40.45;;;8.60;99.90;;;;;;5116342;28;19956;-69
2022/11/16 02:48:32;;;;;;;110.32;41.83;;;8.60;99.90;;;;;;5115401;28;20026;-69
2022/11/16 02:50:57;;;;;;;129.55;40.38;;;8.60;99.90;;;;;;5115767;28;20027;-70
2022/11/16 02:53:24;;;;;;;122.75;40.67;;;8.60;99.90;;;;;;5115197;28;20027;-69
2022/11/16 02:55:50;;;;;;;112.25;41.58;;;8.60;99.90;;;;;;5115690;27;20055;-69
2022/11/16 02:58:21;;;;;;;113.30;42.10;;;8.60;99.90;;;;;;5115047;28;20113;-69
2022/11/16 03:00:55;;;;;;;107.28;42.20;;;8.60;99.90;;;;;;5115691;28;20053;-69
2022/11/16 03:03:20;;;;;;;130.60;43.88;;;8.60;99.90;;;;;;5114707;28;20098;-69
2022/11/16 03:05:54;;;;;;;111.05;40.58;;;8.60;99.90;;;;;;5115418;28;20094;-69
2022/11/16 03:08:27;;;;;;;117.07;40.00;;;8.60;99.90;;;;;;5114605;28;20020;-69
2022/11/16 03:13:42;;;;;;;105.47;41.97;;;8.60;99.90;;;;;;5114503;28;20054;-69
2022/11/16 03:16:40;;;;;;;126.25;43.83;;;8.60;99.90;;;;;;5114836;28;20050;-68
2022/11/16 03:19:09;;;;;;;122.45;40.53;;;8.60;99.90;;;;;;5102778;28;20043;-69
2022/11/16 03:21:56;;;;;;;130.88;38.72;;;8.60;99.90;;;;;;5114529;28;20066;-70
2022/11/16 03:24:22;;;;;;;137.18;39.72;;;8.60;99.90;;;;;;5114402;28;20111;-69
2022/11/16 03:27:05;;;;;;;136.10;39.67;;;8.60;99.90;;;;;;5114088;28;20479;-69
2022/11/16 03:29:53;;;;;;;123.50;39.30;;;8.60;99.90;;;;;;5114505;28;20035;-68
2022/11/16 03:32:48;;;;;;;114.90;41.45;;;8.60;99.90;;;;;;5114446;27;20039;-69
2022/11/16 03:35:25;;;;;;;120.40;39.55;;;8.50;99.90;;;;;;5101438;28;20085;-75
2022/11/16 03:37:55;;;;;;;97.72;37.15;;;8.50;99.90;;;;;;5114787;28;20020;-68
2022/11/16 03:40:23;;;;;;;125.05;40.17;;;8.50;99.90;;;;;;5114290;28;20055;-68
2022/11/16 03:42:49;;;;;;;104.55;41.25;;;8.50;99.90;;;;;;5114609;28;20042;-68
2022/11/16 03:45:17;;;;;;;132.52;41.03;;;8.50;99.90;;;;;;5114608;28;20131;-76
2022/11/16 03:47:43;;;;;;;115.13;39.33;;;8.50;99.90;;;;;;5114714;28;20020;-69
2022/11/16 03:50:09;;;;;;;117.63;40.33;;;8.50;99.90;;;;;;5114636;28;20074;-69
2022/11/16 03:52:35;;;;;;;109.15;40.65;;;8.50;99.90;;;;;;5113639;28;20559;-68
2022/11/16 03:55:01;;;;;;;118.30;39.78;;;8.50;99.90;;;;;;5114070;28;20099;-68
2022/11/16 03:57:26;;;;;;;118.88;39.42;;;8.40;99.90;;;;;;5095568;28;20051;-68
2022/11/16 03:59:52;;;;;;;125.20;41.70;;;8.40;99.90;;;;;;5114604;28;20031;-69
2022/11/16 04:02:18;;;;;;;121.18;41.33;;;8.40;99.90;;;;;;5112543;28;20478;-75
2022/11/16 04:24:27;;;;;;;144.35;39.67;;;8.30;99.90;;;;;;5112827;28;20521;-69
2022/11/16 04:29:43;;;;;;;154.38;43.80;;;8.30;99.90;;;;;;5092813;28;20089;-70
2022/11/16 04:37:53;;;;;;;159.75;42.58;;;8.30;99.90;;;;;;5092337;28;20039;-69
2022/11/16 04:40:22;;;;;;;150.30;44.15;;;8.30;99.90;;;;;;5092693;28;20373;-74
2022/11/16 04:42:56;;;;;;;117.05;42.85;;;8.30;99.90;;;;;;5093280;28;20351;-68
2022/11/16 04:48:08;;;;;;;137.77;43.15;;;8.30;99.90;;;;;;5093239;28;20142;-69
2022/11/16 04:50:33;;;;;;;160.45;44.97;;;8.30;99.90;;;;;;5092574;28;20095;-69
2022/11/16 04:52:59;;;;;;;166.18;46.15;;;8.30;99.90;;;;;;5092675;28;20043;-68
2022/11/16 04:55:25;;;;;;;182.43;47.30;;;8.30;99.90;;;;;;5091586;28;20031;-69
2022/11/16 04:57:51;;;;;;;167.48;44.80;;;8.30;99.90;;;;;;5092503;28;20062;-68
2022/11/16 05:00:17;;;;;;;195.43;46.47;;;8.30;99.90;;;;;;5092083;28;20035;-69
2022/11/16 05:02:43;;;;;;;171.55;45.40;;;8.30;99.90;;;;;;5091981;28;20542;-69
2022/11/16 05:05:09;;;;;;;177.88;46.30;;;8.30;99.90;;;;;;5092262;28;20123;-69
2022/11/16 05:07:35;;;;;;;188.38;46.83;;;8.30;99.90;;;;;;5092178;28;20032;-69
2022/11/16 05:10:02;;;;;;;185.00;44.95;;;8.30;99.90;;;;;;5101196;28;20456;-69
2022/11/16 05:12:28;;;;;;;175.10;47.08;;;8.30;99.90;;;;;;5111759;28;20111;-69
2022/11/16 05:14:54;;;;;;;153.75;46.22;;;8.30;99.90;;;;;;5112812;28;20049;-69
2022/11/16 05:17:21;;;;;;;194.45;44.58;;;8.20;99.90;;;;;;5112839;28;20023;-69
2022/11/16 05:22:32;;;;;;;191.25;48.08;;;8.30;99.90;;;;;;5112377;28;20039;-67
2022/11/16 05:24:57;;;;;;;174.55;49.65;;;8.20;99.90;;;;;;5112296;28;20316;-68
2022/11/16 05:27:24;;;;;;;184.20;46.10;;;8.20;99.90;;;;;;5112227;28;20080;-75
2022/11/16 05:29:51;;;;;;;163.10;49.08;;;8.20;99.90;;;;;;5112537;28;20038;-68
2022/11/16 05:32:18;;;;;;;189.73;50.63;;;8.20;99.90;;;;;;5112530;28;20093;-68
2022/11/16 05:34:44;;;;;;;160.65;48.75;;;8.20;99.90;;;;;;5112016;28;20035;-70
2022/11/16 05:37:10;;;;;;;154.40;47.63;;;8.30;99.90;;;;;;5112430;28;20020;-68
2022/11/16 05:39:36;;;;;;;153.20;47.10;;;8.30;99.90;;;;;;5112127;28;20020;-68
2022/11/16 05:42:02;;;;;;;190.50;49.17;;;8.30;99.90;;;;;;5112466;28;20027;-68
2022/11/16 05:44:28;;;;;;;152.73;47.63;;;8.30;99.90;;;;;;5112063;28;20054;-68
2022/11/16 05:46:54;;;;;;;157.63;47.35;;;8.30;99.90;;;;;;5112275;28;20028;-68
2022/11/16 05:49:21;;;;;;;172.55;47.25;;;8.30;99.90;;;;;;5111581;28;20020;-68
2022/11/16 05:51:47;;;;;;;154.00;47.92;;;8.30;99.90;;;;;;5111861;28;20041;-67
2022/11/16 05:54:15;;;;;;;137.43;46.30;;;8.30;99.90;;;;;;5112465;28;20080;-68
2022/11/16 05:56:40;;;;;;;189.15;46.15;;;8.30;99.90;;;;;;5111772;28;20103;-69
2022/11/16 05:59:06;;;;;;;192.23;46.78;;;8.30;99.90;;;;;;5111886;28;20106;-68
2022/11/16 06:01:32;;;;;;;159.15;47.97;;;8.30;99.90;;;;;;5111762;28;20038;-69
2022/11/16 06:04:01;;;;;;;187.88;46.10;;;8.30;99.90;;;;;;5112370;28;20028;-69
2022/11/16 06:06:27;;;;;;;137.02;46.72;;;8.30;99.90;;;;;;5111521;28;20084;-71
2022/11/16 06:08:53;;;;;;;154.55;51.53;;;8.30;99.90;;;;;;5110651;28;20055;-69
2022/11/16 06:11:20;;;;;;;189.52;50.80;;;8.30;99.90;;;;;;5111842;28;20475;-69
2022/11/16 06:13:46;;;;;;;146.60;46.20;;;8.30;99.90;;;;;;5111586;28;20441;-71
2022/11/16 06:16:12;;;;;;;146.80;48.50;;;8.30;99.90;;;;;;5112082;28;20048;-68
2022/11/16 06:18:39;;;;;;;180.98;48.25;;;8.30;99.90;;;;;;5111242;28;20098;-68
2022/11/16 06:21:06;;;;;;;166.85;46.20;;;8.30;99.90;;;;;;5111704;28;20023;-69
2022/11/16 06:23:32;;;;;;;147.38;48.63;;;8.30;99.90;;;;;;5111573;28;20020;-70
2022/11/16 06:25:58;;;;;;;133.95;47.60;;;8.30;99.90;;;;;;5111806;28;20049;-68
2022/11/16 06:28:24;;;;;;;136.05;46.25;;;8.20;99.90;;;;;;5111423;28;20027;-75
2022/11/16 06:30:50;;;;;;;137.32;48.60;;;8.30;99.90;;;;;;5111588;28;20113;-68
2022/11/16 06:33:16;;;;;;;147.05;47.70;;;8.20;99.90;;;;;;5112042;28;20444;-69
2022/11/16 06:35:42;;;;;;;118.15;45.17;;;8.30;99.90;;;;;;5111518;28;20122;-69
2022/11/16 06:38:08;;;;;;;123.72;47.30;;;8.30;99.90;;;;;;5112245;28;20112;-68
2022/11/16 06:40:34;;;;;;;129.48;46.67;;;8.30;99.90;;;;;;5111721;28;20453;-69
2022/11/16 06:42:59;;;;;;;137.93;45.78;;;8.30;99.90;;;;;;5110604;28;20110;-68
2022/11/16 06:45:25;;;;;;;122.40;46.20;;;8.30;99.90;;;;;;5111592;28;20080;-76
2022/11/16 06:47:51;;;;;;;115.25;41.78;;;8.30;99.90;;;;;;5111833;28;20065;-68
2022/11/16 06:50:18;;;;;;;120.88;44.70;;;8.20;99.90;;;;;;5111893;28;20096;-68
2022/11/16 06:52:45;;;;;;;114.40;42.58;;;8.20;99.90;;;;;;5111415;28;20032;-69
2022/11/16 06:55:11;;;;;;;105.88;40.60;;;8.30;99.90;;;;;;5112321;28;20062;-69
2022/11/16 06:57:37;;;;;;;107.68;41.95;;;8.30;99.90;;;;;;5111449;28;20110;-68
2022/11/16 07:00:04;;;;;;;103.50;42.28;;;8.30;99.90;;;;;;5113324;28;20496;-69
2022/11/16 07:02:29;;;;;;;96.28;38.47;;;8.30;99.90;;;;;;5115755;27;20517;-71
2022/11/16 07:04:55;;;;;;;99.65;37.72;;;8.30;99.90;;;;;;5136068;27;20019;-69
2022/11/16 07:07:21;;;;;;;103.97;39.65;;;8.30;99.90;;;;;;5135897;27;20026;-68
2022/11/16 07:09:46;;;;;;;94.97;37.53;;;8.30;99.90;;;;;;5114075;27;20521;-69
2022/11/16 07:12:12;;;;;;;97.60;39.97;;;8.30;99.90;;;;;;5115014;28;20034;-68
2022/11/16 07:14:38;;;;;;;96.32;38.70;;;8.30;99.90;;;;;;5115040;28;20027;-68
2022/11/16 07:17:03;;;;;;;98.30;38.90;;;8.30;99.90;;;;;;5115068;28;20031;-68
2022/11/16 07:19:29;;;;;;;99.95;38.97;;;8.30;99.90;;;;;;5115075;28;20031;-74
2022/11/16 07:21:54;;;;;;;100.72;39.55;;;8.30;99.90;;;;;;5114752;28;20066;-68
2022/11/16 07:24:20;;;;;;;101.03;37.75;;;8.30;99.90;;;;;;5115119;28;20072;-67
2022/11/16 07:26:46;;;;;;;86.15;37.70;;;8.30;99.90;;;;;;5114461;28;20364;-67
2022/11/16 07:29:12;;;;;;;86.05;36.50;;;8.30;99.90;;;;;;5114811;28;20027;-68
2022/11/16 07:31:38;;;;;;;87.38;37.88;;;8.40;99.90;;;;;;5114521;28;20023;-69
2022/11/16 07:34:04;;;;;;;83.07;36.40;;;8.40;99.90;;;;;;5112621;28;20085;-69
2022/11/16 07:36:29;;;;;;;99.18;39.20;;;8.40;99.90;;;;;;5114561;28;20019;-74
2022/11/16 07:38:55;;;;;;;96.45;38.40;;;8.40;99.90;;;;;;5114771;28;20464;-67
2022/11/16 07:41:21;;;;;;;97.18;39.30;;;8.40;99.90;;;;;;5113391;28;20020;-69
2022/11/16 07:43:46;;;;;;;100.32;39.70;;;8.40;99.90;;;;;;5114322;28;20043;-68
2022/11/16 07:46:13;;;;;;;79.40;36.38;;;8.40;99.90;;;;;;5114715;28;20059;-69
2022/11/16 07:48:41;;;;;;;87.50;37.88;;;8.50;99.90;;;;;;5113891;28;20036;-70
2022/11/16 07:51:17;;;;;;;94.80;40.60;;;8.50;99.90;;;;;;5114410;28;20027;-69
2022/11/16 07:53:43;;;;;;;86.47;38.42;;;8.50;99.90;;;;;;5112925;28;20031;-69
2022/11/16 07:56:10;;;;;;;97.32;40.80;;;8.50;99.90;;;;;;5112765;28;20361;-68
2022/11/16 07:58:36;;;;;;;90.60;39.92;;;8.50;99.90;;;;;;5113865;28;20028;-69
2022/11/16 08:01:06;;;;;;;78.35;36.97;;;8.50;99.90;;;;;;5114357;28;20052;-68
2022/11/16 08:03:33;;;;;;;83.68;37.22;;;8.50;99.90;;;;;;5114171;28;20107;-73
2022/11/16 08:06:05;;;;;;;78.53;36.40;;;8.50;99.90;;;;;;5114399;28;20076;-69
2022/11/16 08:08:31;;;;;;;77.38;36.60;;;8.40;99.90;;;;;;5114045;28;20058;-72
2022/11/16 08:11:04;;;;;;;78.78;36.42;;;8.40;99.90;;;;;;5113184;28;20085;-69
2022/11/16 08:13:33;;;;;;;76.70;34.97;;;8.40;99.90;;;;;;5113479;28;20024;-69
2022/11/16 08:16:03;;;;;;;76.20;34.63;;;8.40;99.90;;;;;;5114032;28;20480;-70
2022/11/16 08:18:29;;;;;;;76.40;35.27;;;8.50;99.90;;;;;;5113847;28;20383;-68
2022/11/16 08:20:58;;;;;;;81.25;37.25;;;8.50;99.90;;;;;;5113097;28;20073;-69
2022/11/16 08:23:24;;;;;;;84.57;38.92;;;8.50;99.90;;;;;;5114052;28;20085;-69
2022/11/16 08:25:49;;;;;;;76.85;38.33;;;8.50;99.90;;;;;;5113509;28;20031;-67
2022/11/16 08:28:15;;;;;;;87.68;40.03;;;8.50;99.90;;;;;;5113907;28;20525;-69
2022/11/16 08:30:41;;;;;;;89.90;40.35;;;8.50;99.90;;;;;;5113395;28;20067;-70
2022/11/16 08:33:08;;;;;;;90.68;40.92;;;8.50;99.90;;;;;;5113662;28;20067;-70
2022/11/16 08:35:35;;;;;;;92.63;40.72;;;8.50;99.90;;;;;;5113547;28;20414;-76
2022/11/16 08:38:01;;;;;;;87.97;39.72;;;8.50;99.90;;;;;;5113562;28;20039;-72
2022/11/16 08:40:26;;;;;;;78.30;36.40;;;8.50;99.90;;;;;;5113634;28;20072;-71
2022/11/16 08:42:55;;;;;;;75.00;35.53;;;8.60;99.90;;;;;;5113218;28;20024;-71
2022/11/16 08:45:26;;;;;;;72.78;35.22;;;8.60;99.90;;;;;;5113662;28;20384;-70
2022/11/16 08:47:51;;;;;;;66.03;32.67;;;8.60;99.90;;;;;;5111982;28;20027;-69
2022/11/16 08:50:17;;;;;;;56.03;29.05;;;8.60;99.90;;;;;;5113616;28;20463;-69
2022/11/16 08:52:43;;;;;;;50.42;25.30;;;8.60;99.90;;;;;;5113063;28;20043;-68
2022/11/16 08:55:09;;;;;;;51.33;26.38;;;8.60;99.90;;;;;;5113483;28;20028;-68
2022/11/16 08:57:35;;;;;;;55.42;26.70;;;8.60;99.90;;;;;;5112794;28;20028;-70
2022/11/16 09:00:01;;;;;;;56.50;27.90;;;8.60;99.90;;;;;;5112929;28;20020;-69
2022/11/16 09:02:26;;;;;;;46.05;25.17;;;8.50;99.90;;;;;;5112325;28;20111;-69
2022/11/16 09:04:52;;;;;;;47.58;25.63;;;8.50;99.90;;;;;;5109322;28;20062;-73
2022/11/16 09:07:18;;;;;;;52.53;26.95;;;8.50;99.90;;;;;;5112540;28;20033;-71
2022/11/16 09:09:44;;;;;;;52.20;27.38;;;8.50;99.90;;;;;;5111796;28;20088;-71
2022/11/16 09:12:10;;;;;;;50.97;26.13;;;8.60;99.90;;;;;;5113321;27;20044;-70
2022/11/16 09:14:35;;;;;;;45.92;25.60;;;8.50;99.90;;;;;;5112583;28;20050;-70
2022/11/16 09:17:01;;;;;;;51.33;26.13;;;8.50;99.90;;;;;;5111889;28;20028;-68
2022/11/16 09:19:27;;;;;;;51.78;25.35;;;8.50;99.90;;;;;;5112646;28;20388;-69
2022/11/16 09:21:53;;;;;;;47.60;26.65;;;8.50;99.90;;;;;;5113015;28;20028;-69
2022/11/16 09:24:18;;;;;;;51.38;27.15;;;8.50;99.90;;;;;;5113192;28;20031;-69
2022/11/16 09:26:44;;;;;;;48.20;26.40;;;8.50;99.90;;;;;;5112676;28;20026;-69
2022/11/16 09:29:12;;;;;;;51.53;27.42;;;8.40;99.90;;;;;;5112837;28;20031;-68
2022/11/16 09:31:37;;;;;;;58.30;28.75;;;8.40;99.90;;;;;;5112148;28;20476;-69
2022/11/16 09:34:03;;;;;;;54.03;26.60;;;8.50;99.90;;;;;;5112855;28;20052;-69
2022/11/16 09:36:29;;;;;;;55.70;28.25;;;8.50;99.90;;;;;;5112995;28;20042;-69
2022/11/16 09:38:56;;;;;;;55.95;28.58;;;8.50;99.90;;;;;;5112765;28;20053;-69
2022/11/16 09:41:52;;;;;;;61.03;29.58;;;8.50;99.90;;;;;;5112893;28;20122;-68
2022/11/16 09:44:51;;;;;;;56.20;29.55;;;8.50;99.90;;;;;;5112805;28;20038;-69
2022/11/16 09:47:37;;;;;;;63.33;29.77;;;8.50;99.90;;;;;;5112517;28;20027;-69
2022/11/16 09:50:05;;;;;;;59.35;28.60;;;8.50;99.90;;;;;;5112745;28;20085;-68
2022/11/16 09:52:37;;;;;;;56.95;28.85;;;8.50;99.90;;;;;;5112560;28;20039;-69
2022/11/16 09:55:26;;;;;;;50.85;26.85;;;8.60;99.90;;;;;;5112417;28;20123;-69
2022/11/16 09:57:55;;;;;;;50.28;26.23;;;8.60;99.90;;;;;;5110729;28;20032;-70
2022/11/16 10:00:22;;;;;;;50.47;26.30;;;8.60;99.90;;;;;;5109772;28;20532;-70
2022/11/16 10:03:05;;;;;;;51.42;26.60;;;8.60;99.90;;;;;;5110730;28;20054;-68
2022/11/16 10:06:02;;;;;;;58.22;27.20;;;8.50;99.90;;;;;;5109506;28;20027;-72
2022/11/16 10:08:45;;;;;;;57.42;28.23;;;8.60;99.90;;;;;;5112438;28;20059;-72
2022/11/16 10:11:28;;;;;;;60.55;28.63;;;8.60;99.90;;;;;;5112712;28;20448;-68
2022/11/16 10:14:22;;;;;;;54.78;27.73;;;8.60;99.90;;;;;;5111867;28;20357;-69
2022/11/16 10:17:15;;;;;;;62.50;30.77;;;8.70;99.90;;;;;;5110956;28;20027;-69
2022/11/16 10:20:07;;;;;;;53.33;26.15;;;8.70;99.90;;;;;;5112083;28;20031;-70
2022/11/16 10:23:00;;;;;;;47.95;25.55;;;8.70;99.90;;;;;;5112102;28;20028;-69
2022/11/16 10:25:42;;;;;;;48.88;25.30;;;8.70;99.90;;;;;;5112294;28;20035;-70
2022/11/16 10:28:13;;;;;;;49.13;26.17;;;8.70;99.90;;;;;;5112066;28;20461;-69
2022/11/16 10:31:08;;;;;;;46.63;24.83;;;8.70;99.90;;;;;;5112344;28;20444;-71
2022/11/16 10:33:36;;;;;;;51.28;26.90;;;8.80;99.90;;;;;;5109931;28;20502;-70
2022/11/16 10:36:25;;;;;;;48.25;26.85;;;8.80;99.90;;;;;;5113859;28;20023;-69
2022/11/16 10:38:55;;;;;;;52.08;26.55;;;8.90;99.90;;;;;;5113074;28;20456;-68
2022/11/16 10:41:30;;;;;;;47.20;24.88;;;8.90;99.90;;;;;;5114645;28;20032;-70
2022/11/16 10:43:58;;;;;;;47.20;24.60;;;8.90;99.90;;;;;;5114513;28;20027;-72
2022/11/16 10:46:30;;;;;;;44.95;25.88;;;8.90;99.90;;;;;;5112470;28;20051;-70
2022/11/16 10:49:28;;;;;;;45.15;25.42;;;8.90;99.90;;;;;;5114769;28;20050;-70
2022/11/16 10:51:53;;;;;;;47.28;26.08;;;9.00;99.90;;;;;;5114909;28;20027;-71
2022/11/16 10:54:19;;;;;;;44.65;25.80;;;9.00;99.90;;;;;;5115508;28;20020;-70
2022/11/16 10:56:50;;;;;;;42.45;24.63;;;9.00;99.90;;;;;;5113997;28;20024;-69
2022/11/16 10:59:19;;;;;;;41.83;23.70;;;9.10;99.90;;;;;;5114687;28;20553;-76
2022/11/16 11:01:50;;;;;;;43.97;23.75;;;9.00;99.90;;;;;;5114751;28;20035;-74
2022/11/16 11:04:21;;;;;;;41.28;23.90;;;9.00;99.90;;;;;;5115681;28;20111;-74
2022/11/16 11:06:50;;;;;;;42.83;24.23;;;9.00;99.90;;;;;;5115830;28;20020;-71
2022/11/16 11:09:35;;;;;;;42.38;24.77;;;9.10;99.90;;;;;;5116022;28;20073;-71
2022/11/16 11:15:11;;;;;;;39.28;22.08;;;9.10;99.90;;;;;;5114817;28;20057;-73
2022/11/16 11:17:40;;;;;;;39.53;22.25;;;9.10;99.90;;;;;;5115634;28;20090;-77
2022/11/16 11:20:26;;;;;;;39.35;22.77;;;9.10;99.90;;;;;;5114757;28;20033;-72
2022/11/16 11:22:56;;;;;;;45.13;23.08;;;9.10;99.90;;;;;;5114759;28;20126;-72
2022/11/16 11:25:24;;;;;;;42.55;23.73;;;9.10;99.90;;;;;;5115569;28;20094;-70
2022/11/16 11:28:02;;;;;;;37.30;22.13;;;9.10;99.90;;;;;;5115649;28;20046;-71
2022/11/16 11:30:29;;;;;;;33.58;20.08;;;9.10;99.90;;;;;;5115834;28;20028;-71
2022/11/16 11:32:56;;;;;;;37.53;19.95;;;9.10;99.90;;;;;;5115264;28;20459;-70
2022/11/16 11:35:29;;;;;;;37.20;20.23;;;9.10;99.90;;;;;;5115774;28;20071;-70
2022/11/16 11:37:58;;;;;;;33.72;20.40;;;9.10;99.90;;;;;;5114934;28;20027;-72
2022/11/16 11:40:31;;;;;;;36.03;20.13;;;9.10;99.90;;;;;;5115192;28;20024;-71
2022/11/16 11:42:58;;;;;;;31.55;19.35;;;9.10;99.90;;;;;;5115206;28;20038;-71
2022/11/16 11:45:47;;;;;;;28.83;17.63;;;9.10;99.90;;;;;;5115412;28;20028;-71
2022/11/16 11:48:18;;;;;;;29.77;17.98;;;9.10;99.90;;;;;;5114411;27;20016;-71
2022/11/16 11:50:56;;;;;;;25.02;15.95;;;9.10;99.90;;;;;;5114746;28;20053;-71
2022/11/16 11:53:46;;;;;;;29.13;17.92;;;9.20;99.90;;;;;;5114318;28;20066;-75
2022/11/16 11:56:13;;;;;;;25.65;17.42;;;9.10;99.90;;;;;;5114013;28;20460;-71
2022/11/16 11:58:41;;;;;;;28.00;16.88;;;9.20;99.90;;;;;;5113908;28;20347;-71
2022/11/16 12:01:34;;;;;;;24.67;15.13;;;9.20;99.90;;;;;;5113418;28;20053;-71
2022/11/16 12:04:24;;;;;;;23.77;15.40;;;9.20;99.90;;;;;;5113833;28;20100;-71
2022/11/16 12:07:13;;;;;;;21.65;14.95;;;9.20;99.90;;;;;;5115291;27;20483;-74
2022/11/16 12:09:56;;;;;;;24.33;15.00;;;9.20;99.90;;;;;;5129221;27;20064;-71
2022/11/16 12:12:27;;;;;;;25.67;14.82;;;9.20;99.90;;;;;;5101586;27;20031;-70
2022/11/16 12:15:20;;;;;;;20.55;14.60;;;9.30;99.90;;;;;;5128057;27;20032;-71
2022/11/16 12:18:00;;;;;;;19.30;12.30;;;9.30;99.90;;;;;;5114860;28;20077;-69
2022/11/16 12:21:04;;;;;;;19.90;12.70;;;9.20;99.90;;;;;;5094748;28;20020;-72
2022/11/16 12:23:47;;;;;;;19.88;11.82;;;9.20;99.90;;;;;;5030682;28;20076;-73
2022/11/16 12:26:22;;;;;;;18.80;12.25;;;9.30;99.90;;;;;;5103425;28;20066;-75
2022/11/16 12:29:08;;;;;;;19.40;12.30;;;9.30;99.90;;;;;;5113359;28;20027;-75
2022/11/16 12:32:07;;;;;;;18.63;12.10;;;9.40;99.90;;;;;;5111130;28;20035;-73
2022/11/16 12:34:57;;;;;;;19.00;13.38;;;9.30;99.90;;;;;;5110837;28;20051;-75
2022/11/16 12:37:39;;;;;;;19.10;13.20;;;9.40;99.90;;;;;;5120654;27;20026;-73
2022/11/16 12:40:15;;;;;;;20.27;12.48;;;9.40;99.90;;;;;;5094705;28;20028;-74
2022/11/16 12:42:57;;;;;;;18.63;11.88;;;9.40;99.90;;;;;;5093430;28;20024;-74
2022/11/16 12:45:42;;;;;;;15.77;11.50;;;9.40;99.90;;;;;;5093348;28;20028;-73
2022/11/16 12:48:18;;;;;;;19.55;12.73;;;9.40;99.90;;;;;;5112212;28;20431;-74
2022/11/16 12:51:14;;;;;;;25.98;12.90;;;9.40;99.90;;;;;;5113825;28;20119;-74
2022/11/16 12:53:50;;;;;;;24.95;13.50;;;9.40;99.90;;;;;;5113920;28;20032;-70
2022/11/16 12:56:37;;;;;;;22.58;12.35;;;9.30;99.90;;;;;;5113595;28;20115;-72
2022/11/16 12:59:36;;;;;;;20.90;12.52;;;9.30;99.90;;;;;;5112471;28;20380;-72
2022/11/16 13:02:29;;;;;;;20.63;11.77;;;9.40;99.90;;;;;;5113025;28;20031;-72
2022/11/16 13:05:11;;;;;;;24.67;13.30;;;9.30;99.90;;;;;;5112635;28;20024;-71
2022/11/16 13:07:43;;;;;;;19.95;11.68;;;9.30;99.90;;;;;;5113740;28;20032;-71
2022/11/16 13:10:32;;;;;;;19.45;12.45;;;9.20;99.90;;;;;;5112909;28;20479;-70
2022/11/16 13:13:09;;;;;;;20.60;12.68;;;9.10;99.90;;;;;;5113211;28;20071;-71
2022/11/16 13:15:38;;;;;;;24.42;12.55;;;9.10;99.90;;;;;;5113175;28;20544;-71
2022/11/16 13:18:07;;;;;;;23.70;12.23;;;9.00;99.90;;;;;;5113253;28;20038;-71
2022/11/16 13:20:38;;;;;;;22.52;12.15;;;9.00;99.90;;;;;;5111949;28;20027;-70
2022/11/16 13:23:07;;;;;;;19.50;11.45;;;8.90;99.90;;;;;;5113134;28;20102;-70
2022/11/16 13:25:47;;;;;;;19.38;10.45;;;8.90;99.90;;;;;;5113207;28;20052;-70
2022/11/16 13:28:32;;;;;;;22.17;12.07;;;8.90;99.90;;;;;;5112397;28;20039;-70
2022/11/16 13:31:04;;;;;;;18.08;10.70;;;8.90;99.90;;;;;;5112734;28;20028;-70
2022/11/16 13:33:43;;;;;;;23.33;10.80;;;8.90;99.90;;;;;;5112641;28;20036;-69
2022/11/16 13:36:42;;;;;;;17.00;9.55;;;8.90;99.90;;;;;;5092311;28;20023;-70